Time,TemperatureF,DewpointF,PressureIn,WindDirection,WindDirectionDegrees,WindSpeedMPH,WindSpeedGustMPH,Humidity,HourlyPrecipIn,Conditions,Clouds,dailyrainin,SoftwareType,DateUTC
2013-07-10 00:58:00,76.8,72.7,29.97,SSW,202,0.0,0.0,87,0.00,,,0.00,VWS V14.01,2013-07-10 05:58:00,
2013-07-10 01:58:00,75.4,71.6,29.98,WSW,248,0.0,0.0,88,0.00,,,0.00,VWS V14.01,2013-07-10 06:58:00,
2013-07-10 02:58:00,76.6,72.8,29.97,WNW,292,0.0,0.0,88,0.00,,,0.00,VWS V14.01,2013-07-10 07:58:00,
2013-07-10 03:58:00,75.6,71.8,29.97,WNW,292,0.0,0.0,88,0.00,,,0.00,VWS V14.01,2013-07-10 08:58:00,
2013-07-10 04:58:00,75.7,71.6,29.97,WNW,292,114.1,114.1,87,0.00,,,0.00,VWS V14.01,2013-07-10 09:58:00,
2013-07-10 05:58:00,73.4,69.0,29.98,NNW,338,0.9,114.1,86,0.00,,,0.00,VWS V14.01,2013-07-10 10:58:00,
2013-07-10 06:58:00,73.0,67.9,29.98,North,0,4.3,4.3,84,0.00,,,0.00,VWS V14.01,2013-07-10 11:58:00,
2013-07-10 07:58:00,75.7,68.8,30.00,North,0,8.1,8.1,79,0.00,,,0.00,VWS V14.01,2013-07-10 12:58:00,
2013-07-10 08:58:00,76.6,68.9,30.01,North,0,16.3,16.3,77,0.00,,,0.00,VWS V14.01,2013-07-10 13:58:00,
2013-07-10 09:58:00,78.4,69.1,30.03,NNW,338,12.3,16.3,73,0.00,,,0.00,VWS V14.01,2013-07-10 14:58:00,
2013-07-10 10:58:00,79.7,67.8,30.03,NNW,338,15.7,15.7,67,0.00,,,0.00,VWS V14.01,2013-07-10 15:58:00,
2013-07-10 11:58:00,79.3,65.7,30.05,North,0,6.7,15.7,63,0.00,,,0.00,VWS V14.01,2013-07-10 16:58:00,
2013-07-10 12:58:00,81.0,64.3,30.08,NNW,338,10.1,10.1,57,0.00,,,0.00,VWS V14.01,2013-07-10 17:58:00,
2013-07-10 13:58:00,79.9,63.8,30.08,NNW,338,1.8,10.1,58,0.00,,,0.00,VWS V14.01,2013-07-10 18:58:00,
2013-07-10 14:58:00,81.1,63.5,30.08,NNW,338,9.2,9.2,55,0.00,,,0.00,VWS V14.01,2013-07-10 19:58:00,
2013-07-10 15:58:00,82.8,62.8,30.07,NW,315,3.6,9.2,51,0.00,,,0.00,VWS V14.01,2013-07-10 20:58:00,
2013-07-10 16:58:00,81.3,62.6,30.07,North,0,6.7,6.7,53,0.00,,,0.00,VWS V14.01,2013-07-10 21:58:00,
2013-07-10 17:58:00,80.4,60.7,30.06,NNW,338,11.6,11.6,51,0.00,,,0.00,VWS V14.01,2013-07-10 22:58:00,
2013-07-10 18:58:00,79.7,63.6,30.05,North,0,9.4,11.6,58,0.00,,,0.00,VWS V14.01,2013-07-10 23:58:00,
2013-07-10 19:58:00,77.2,59.8,30.06,North,0,9.8,9.8,55,0.00,,,0.00,VWS V14.01,2013-07-11 00:58:00,
2013-07-10 20:58:00,73.6,60.7,30.06,North,0,6.3,9.8,64,0.00,,,0.00,VWS V14.01,2013-07-11 01:58:00,
2013-07-10 21:58:00,68.7,60.1,30.07,NNW,338,3.1,6.3,74,0.00,,,0.00,VWS V14.01,2013-07-11 02:58:00,
2013-07-10 22:58:00,67.1,59.3,30.09,NNW,338,0.0,3.1,76,0.00,,,0.00,VWS V14.01,2013-07-11 03:58:00,
2013-07-10 23:58:00,63.7,58.1,30.10,NNW,338,0.0,0.0,82,0.00,,,0.00,VWS V14.01,2013-07-11 04:58:00,